createdAt,value
2023-04-16T00:00:07.016Z,1.00
2023-04-16T00:03:01.158Z,1.00
2023-04-16T00:05:29.397Z,1.00
2023-04-16T00:07:57.317Z,1.00
2023-04-16T00:10:25.276Z,2.00
2023-04-16T00:12:53.256Z,1.00
2023-04-16T00:15:21.251Z,2.00
2023-04-16T00:17:49.237Z,2.00
2023-04-16T00:20:17.314Z,2.00
2023-04-16T00:22:45.399Z,1.00
2023-04-16T00:25:14.095Z,2.00
2023-04-16T00:27:42.150Z,2.00
2023-04-16T00:30:10.223Z,2.00
2023-04-16T00:32:40.570Z,3.00
2023-04-16T00:35:08.581Z,2.00
2023-04-16T00:40:05.537Z,2.00
2023-04-16T00:42:33.558Z,1.00
2023-04-16T00:45:02.104Z,3.00
2023-04-16T00:47:30.071Z,2.50
2023-04-16T00:49:58.159Z,4.00
2023-04-16T00:52:26.170Z,4.00
2023-04-16T00:54:54.182Z,3.00
2023-04-16T00:57:24.054Z,4.00
2023-04-16T00:59:51.966Z,3.50
2023-04-16T01:02:19.939Z,3.00
2023-04-16T01:07:15.864Z,5.50
2023-04-16T01:09:43.790Z,5.00
2023-04-16T01:12:11.755Z,4.00
2023-04-16T01:14:39.690Z,4.00
2023-04-16T01:17:07.576Z,4.00
2023-04-16T01:19:38.612Z,5.00
2023-04-16T01:22:06.470Z,5.00
2023-04-16T01:24:35.184Z,4.00
2023-04-16T01:27:03.150Z,4.50
2023-04-16T01:29:31.410Z,4.00
2023-04-16T01:31:59.860Z,5.00
2023-04-16T01:34:33.019Z,5.00
2023-04-16T01:37:00.905Z,4.00
2023-04-16T01:39:28.964Z,5.00
2023-04-16T01:41:58.282Z,5.00
2023-04-16T01:44:26.606Z,4.00
2023-04-16T01:46:54.782Z,7.00
2023-04-16T01:49:22.929Z,4.00
2023-04-16T01:51:51.636Z,4.50
2023-04-16T01:54:19.640Z,4.00
2023-04-16T01:56:47.627Z,4.00
2023-04-16T01:59:15.639Z,4.00
2023-04-16T02:01:43.741Z,4.00
2023-04-16T02:04:11.772Z,4.00
2023-04-16T02:06:40.975Z,3.00
2023-04-16T02:09:09.319Z,4.00
2023-04-16T02:11:38.807Z,4.00
2023-04-16T02:21:41.842Z,4.00
2023-04-16T02:24:09.695Z,6.00
2023-04-16T02:26:37.932Z,4.50
2023-04-16T02:29:09.672Z,4.50
2023-04-16T02:31:42.382Z,4.00
2023-04-16T02:34:10.957Z,5.00
2023-04-16T02:36:38.949Z,6.00
2023-04-16T02:39:07.222Z,4.00
2023-04-16T02:41:35.404Z,3.50
2023-04-16T02:44:03.595Z,5.00
2023-04-16T02:46:31.759Z,4.00
2023-04-16T02:48:59.826Z,5.00
2023-04-16T02:51:27.941Z,4.00
2023-04-16T02:53:56.045Z,4.00
2023-04-16T02:56:23.966Z,4.50
2023-04-16T02:58:52.573Z,5.00
2023-04-16T03:01:20.603Z,3.00
2023-04-16T03:03:48.580Z,3.00
2023-04-16T03:08:44.302Z,5.00
2023-04-16T03:11:12.163Z,5.00
2023-04-16T03:13:40.132Z,3.00
2023-04-16T03:16:08.301Z,2.00
2023-04-16T03:18:36.694Z,4.00
2023-04-16T03:21:05.162Z,5.00
2023-04-16T03:23:33.341Z,4.00
2023-04-16T03:26:01.359Z,4.00
2023-04-16T03:28:30.346Z,4.00
2023-04-16T03:30:59.667Z,4.00
2023-04-16T03:33:27.692Z,4.00
2023-04-16T03:35:57.328Z,4.00
2023-04-16T03:38:27.072Z,4.50
2023-04-16T03:40:56.775Z,5.00
2023-04-16T03:43:24.816Z,6.00
2023-04-16T03:45:53.258Z,5.00
2023-04-16T03:48:23.125Z,6.00
2023-04-16T03:50:51.234Z,10.00
2023-04-16T03:53:20.674Z,7.00
2023-04-16T03:55:52.129Z,9.00
2023-04-16T03:58:20.465Z,11.00
2023-04-16T04:00:48.697Z,14.00
2023-04-16T04:03:18.088Z,17.00
2023-04-16T04:05:47.798Z,17.00
2023-04-16T04:08:17.699Z,18.00
2023-04-16T04:10:46.071Z,19.00
2023-04-16T04:13:14.587Z,18.50
2023-04-16T04:15:42.563Z,20.00
2023-04-16T04:18:10.466Z,19.00
2023-04-16T04:20:41.393Z,18.50
2023-04-16T04:23:09.561Z,22.00
2023-04-16T04:28:05.697Z,21.00
2023-04-16T04:30:35.814Z,21.00
2023-04-16T04:33:04.099Z,20.50
2023-04-16T04:35:32.700Z,21.00
2023-04-16T04:38:02.587Z,19.00
2023-04-16T04:40:30.924Z,23.00
2023-04-16T04:42:58.928Z,21.00
2023-04-16T04:45:27.416Z,19.00
2023-04-16T04:47:56.480Z,17.00
2023-04-16T04:50:24.409Z,17.00
2023-04-16T04:52:52.301Z,20.00
2023-04-16T04:55:20.570Z,20.50
2023-04-16T04:57:49.486Z,20.50
2023-04-16T05:00:17.758Z,16.00
2023-04-16T05:02:52.200Z,14.67
2023-04-16T05:05:20.583Z,16.00
2023-04-16T05:07:48.584Z,14.00
2023-04-16T05:10:16.815Z,11.00
2023-04-16T05:12:48.792Z,8.00
2023-04-16T05:15:17.038Z,7.00
2023-04-16T05:17:45.010Z,7.00
2023-04-16T05:22:41.484Z,9.00
2023-04-16T05:25:09.657Z,6.33
2023-04-16T05:27:38.409Z,11.00
2023-04-16T05:30:07.344Z,9.00
2023-04-16T05:32:35.728Z,11.50
2023-04-16T05:35:03.743Z,12.00
2023-04-16T05:37:31.757Z,9.00
2023-04-16T05:39:59.579Z,9.00
2023-04-16T05:42:27.588Z,4.00
2023-04-16T05:44:55.608Z,4.00
2023-04-16T05:47:24.400Z,3.00
2023-04-16T05:49:52.305Z,3.00
2023-04-16T05:52:20.280Z,3.00
2023-04-16T05:54:48.197Z,3.50
2023-04-16T05:57:16.508Z,2.00
2023-04-16T05:59:44.721Z,2.00
2023-04-16T06:02:12.670Z,3.00
2023-04-16T06:04:40.788Z,3.00
2023-04-16T06:07:08.851Z,3.00
2023-04-16T06:09:36.933Z,4.00
2023-04-16T06:12:05.043Z,3.00
2023-04-16T06:14:33.050Z,4.00
2023-04-16T06:17:01.524Z,5.00
2023-04-16T06:19:29.436Z,4.00
2023-04-16T06:21:57.423Z,4.00
2023-04-16T06:24:25.415Z,5.00
2023-04-16T06:26:54.515Z,4.00
2023-04-16T06:29:27.910Z,4.00
2023-04-16T06:32:02.171Z,4.00
2023-04-16T06:34:30.284Z,4.00
2023-04-16T06:36:58.234Z,5.50
2023-04-16T06:39:26.270Z,6.33
2023-04-16T06:41:54.136Z,4.25
2023-04-16T06:44:22.188Z,5.00
2023-04-16T06:46:51.170Z,6.00
2023-04-16T06:49:19.198Z,5.00
2023-04-16T06:51:47.073Z,5.00
2023-04-16T06:54:15.103Z,5.50
2023-04-16T06:56:43.002Z,5.50
2023-04-16T06:59:11.109Z,6.50
2023-04-16T07:01:39.498Z,5.00
2023-04-16T07:04:07.740Z,4.50
2023-04-16T07:06:35.656Z,4.50
2023-04-16T07:11:31.338Z,7.00
2023-04-16T07:13:59.195Z,5.50
2023-04-16T07:16:27.699Z,7.00
2023-04-16T07:18:55.804Z,7.50
2023-04-16T07:21:23.830Z,6.00
2023-04-16T07:23:51.890Z,4.00
2023-04-16T07:26:19.766Z,7.00
2023-04-16T07:28:47.755Z,7.00
2023-04-16T07:31:15.815Z,6.00
2023-04-16T07:33:43.837Z,8.00
2023-04-16T07:36:11.745Z,7.00
2023-04-16T07:38:39.545Z,7.00
2023-04-16T07:41:08.089Z,7.00
2023-04-16T07:43:36.586Z,7.00
2023-04-16T07:46:04.759Z,8.50
2023-04-16T07:48:32.817Z,9.00
2023-04-16T07:51:00.689Z,6.00
2023-04-16T07:53:28.566Z,6.00
2023-04-16T07:55:56.518Z,7.50
2023-04-16T07:58:24.593Z,8.00
2023-04-16T08:00:52.707Z,8.00
2023-04-16T08:03:20.748Z,8.50
2023-04-16T08:05:48.844Z,8.00
2023-04-16T08:08:16.804Z,8.00
2023-04-16T08:10:44.696Z,9.00
2023-04-16T08:13:12.758Z,10.00
2023-04-16T08:15:40.920Z,7.50
2023-04-16T08:18:13.162Z,9.00
2023-04-16T08:20:42.372Z,9.00
2023-04-16T08:23:10.484Z,7.00
2023-04-16T08:25:38.486Z,11.50
2023-04-16T08:28:06.594Z,9.00
2023-04-16T08:30:34.639Z,9.50
2023-04-16T08:33:02.650Z,12.00
2023-04-16T08:35:30.635Z,9.00
2023-04-16T08:38:01.774Z,8.00
2023-04-16T08:40:30.900Z,9.00
2023-04-16T08:42:59.488Z,9.00
2023-04-16T08:45:28.007Z,9.00
2023-04-16T08:47:56.047Z,11.00
2023-04-16T08:50:25.458Z,11.50
2023-04-16T08:52:58.239Z,11.00
2023-04-16T08:55:30.993Z,9.00
2023-04-16T08:57:59.151Z,9.00
2023-04-16T09:00:27.049Z,10.00
2023-04-16T09:02:55.210Z,10.00
2023-04-16T09:05:29.951Z,11.00
2023-04-16T09:07:59.216Z,9.00
2023-04-16T09:10:29.485Z,10.00
2023-04-16T09:12:57.619Z,9.00
2023-04-16T09:15:25.841Z,9.00
2023-04-16T09:17:54.422Z,8.00
2023-04-16T09:20:22.347Z,8.00
2023-04-16T09:22:50.536Z,10.00
2023-04-16T09:25:19.166Z,8.50
2023-04-16T09:27:49.290Z,9.00
2023-04-16T09:30:27.198Z,7.67
2023-04-16T09:33:14.613Z,9.00
2023-04-16T09:35:51.895Z,5.00
2023-04-16T09:38:20.283Z,7.50
2023-04-16T09:40:48.220Z,5.00
2023-04-16T09:43:18.579Z,6.00
2023-04-16T09:45:49.936Z,7.00
2023-04-16T09:48:34.088Z,7.00
2023-04-16T09:51:06.466Z,7.00
2023-04-16T09:53:36.067Z,6.75
2023-04-16T09:56:11.568Z,6.00
2023-04-16T10:01:17.356Z,7.50
2023-04-16T10:03:45.812Z,7.00
2023-04-16T10:06:22.357Z,7.00
2023-04-16T10:08:50.974Z,7.50
2023-04-16T10:11:21.505Z,9.50
2023-04-16T10:13:50.591Z,5.00
2023-04-16T10:16:18.497Z,6.00
2023-04-16T10:18:47.532Z,6.00
2023-04-16T10:21:16.436Z,6.00
2023-04-16T10:23:44.408Z,5.00
2023-04-16T10:26:13.832Z,4.50
2023-04-16T10:28:42.051Z,5.00
2023-04-16T10:31:10.357Z,4.00
2023-04-16T10:33:40.575Z,4.50
2023-04-16T10:36:09.840Z,5.00
2023-04-16T10:38:42.097Z,6.50
2023-04-16T10:41:11.659Z,6.00
2023-04-16T10:46:23.429Z,5.00
2023-04-16T10:48:53.834Z,3.00
2023-04-16T10:51:33.265Z,7.50
2023-04-16T10:54:19.553Z,5.00
2023-04-16T10:56:47.696Z,4.00
2023-04-16T10:59:18.648Z,5.00
2023-04-16T11:01:48.684Z,4.50
2023-04-16T11:04:19.675Z,4.50
2023-04-16T11:07:21.127Z,4.50
2023-04-16T11:10:06.061Z,6.00
2023-04-16T11:12:44.910Z,8.67
2023-04-16T11:15:14.122Z,8.00
2023-04-16T11:17:51.870Z,6.00
2023-04-16T11:20:21.246Z,5.00
2023-04-16T11:22:49.993Z,16.00
2023-04-16T11:25:30.758Z,9.00
2023-04-16T11:28:01.440Z,8.00
2023-04-16T11:30:34.215Z,7.50
2023-04-16T11:33:06.099Z,6.00
2023-04-16T11:35:34.089Z,6.00
2023-04-16T11:38:02.423Z,5.50
2023-04-16T11:40:31.314Z,6.00
2023-04-16T11:43:13.985Z,5.50
2023-04-16T11:46:02.700Z,4.00
2023-04-16T11:48:59.990Z,4.00
2023-04-16T11:51:27.888Z,4.67
2023-04-16T11:53:56.286Z,4.00
2023-04-16T11:59:09.360Z,4.00
2023-04-16T12:01:38.354Z,3.00
2023-04-16T12:04:07.890Z,4.00
2023-04-16T12:06:36.448Z,4.00
2023-04-16T12:09:24.860Z,8.00
2023-04-16T12:11:53.451Z,4.50
2023-04-16T12:14:23.058Z,5.00
2023-04-16T12:16:51.099Z,4.50
2023-04-16T12:19:19.211Z,9.50
2023-04-16T12:21:48.684Z,4.50
2023-04-16T12:24:20.807Z,4.00
2023-04-16T12:26:52.647Z,5.00
2023-04-16T12:29:24.648Z,3.00
2023-04-16T12:31:53.566Z,5.00
2023-04-16T12:34:21.600Z,7.33
2023-04-16T12:37:07.548Z,6.75
2023-04-16T12:39:35.638Z,4.00
2023-04-16T12:42:05.460Z,3.00
2023-04-16T12:44:33.500Z,4.00
2023-04-16T12:47:01.629Z,4.00
2023-04-16T12:49:29.567Z,13.00
2023-04-16T12:51:57.447Z,4.00
2023-04-16T12:54:29.041Z,5.00
2023-04-16T12:56:57.421Z,10.50
2023-04-16T12:59:25.464Z,14.67
2023-04-16T13:01:53.594Z,5.00
2023-04-16T13:04:24.181Z,4.50
2023-04-16T13:06:53.536Z,4.00
2023-04-16T13:09:21.506Z,4.00
2023-04-16T13:11:50.426Z,3.50
2023-04-16T13:14:19.966Z,5.00
2023-04-16T13:16:48.004Z,7.33
2023-04-16T13:19:16.051Z,5.00
2023-04-16T13:21:43.840Z,11.00
2023-04-16T13:24:11.951Z,4.00
2023-04-16T13:26:39.949Z,5.50
2023-04-16T13:29:08.037Z,15.00
2023-04-16T13:31:36.565Z,12.50
2023-04-16T13:34:04.949Z,3.00
2023-04-16T13:36:33.665Z,4.00
2023-04-16T13:39:04.654Z,8.00
2023-04-16T13:41:32.637Z,10.00
2023-04-16T13:44:00.755Z,4.00
2023-04-16T13:46:29.216Z,3.00
2023-04-16T13:48:57.290Z,4.00
2023-04-16T13:51:25.352Z,4.00
2023-04-16T13:53:54.249Z,4.00
2023-04-16T13:56:22.323Z,3.00
2023-04-16T13:58:50.728Z,4.00
2023-04-16T14:01:18.870Z,3.33
2023-04-16T14:03:47.054Z,4.00
2023-04-16T14:06:18.097Z,5.00
2023-04-16T14:08:46.209Z,5.25
2023-04-16T14:11:14.121Z,4.00
2023-04-16T14:13:42.014Z,5.00
2023-04-16T14:16:10.989Z,11.00
2023-04-16T14:18:42.582Z,13.50
2023-04-16T14:21:10.568Z,18.67
2023-04-16T14:23:38.525Z,19.00
2023-04-16T14:26:06.449Z,17.00
2023-04-16T14:28:35.656Z,18.00
2023-04-16T14:31:05.872Z,18.50
2023-04-16T14:33:34.007Z,16.00
2023-04-16T14:36:02.971Z,17.00
2023-04-16T14:38:31.539Z,14.00
2023-04-16T14:41:00.631Z,17.00
2023-04-16T14:43:28.907Z,12.00
2023-04-16T14:45:58.972Z,17.00
2023-04-16T14:48:27.000Z,15.50
2023-04-16T14:50:54.946Z,17.00
2023-04-16T14:53:23.756Z,15.00
2023-04-16T14:55:54.740Z,15.00
2023-04-16T14:58:22.694Z,17.00
2023-04-16T15:00:51.135Z,16.00
2023-04-16T15:03:19.592Z,20.00
2023-04-16T15:08:24.042Z,13.00
2023-04-16T15:10:52.263Z,14.00
2023-04-16T15:13:20.227Z,11.50
2023-04-16T15:15:49.538Z,15.00
2023-04-16T15:18:17.611Z,13.00
2023-04-16T15:20:45.667Z,12.67
2023-04-16T15:23:13.633Z,13.00
2023-04-16T15:25:49.068Z,12.00
2023-04-16T15:28:17.224Z,10.00
2023-04-16T15:30:45.270Z,13.00
2023-04-16T15:33:13.762Z,11.00
2023-04-16T15:35:41.763Z,13.00
2023-04-16T15:38:09.923Z,11.00
2023-04-16T15:40:37.873Z,10.00
2023-04-16T15:43:06.123Z,9.00
2023-04-16T15:45:34.432Z,9.00
2023-04-16T15:48:02.420Z,6.00
2023-04-16T15:50:31.650Z,6.00
2023-04-16T15:52:59.655Z,6.50
2023-04-16T15:55:27.779Z,6.00
2023-04-16T15:57:56.087Z,6.00
2023-04-16T16:00:24.115Z,6.00
2023-04-16T16:02:52.776Z,5.00
2023-04-16T16:05:21.135Z,7.00
2023-04-16T16:07:49.139Z,8.00
2023-04-16T16:10:17.166Z,6.00
2023-04-16T16:12:46.553Z,5.00
2023-04-16T16:15:14.751Z,8.00
2023-04-16T16:17:42.702Z,6.00
2023-04-16T16:20:10.845Z,7.00
2023-04-16T16:22:45.319Z,6.00
2023-04-16T16:25:13.310Z,5.50
2023-04-16T16:27:42.143Z,4.00
2023-04-16T16:30:12.540Z,4.00
2023-04-16T16:32:41.250Z,4.00
2023-04-16T16:35:09.540Z,9.00
2023-04-16T16:37:38.201Z,9.00
2023-04-16T16:40:07.741Z,8.00
2023-04-16T16:42:35.706Z,10.00
2023-04-16T16:45:06.092Z,9.00
2023-04-16T16:47:34.388Z,13.00
2023-04-16T16:50:03.232Z,10.00
2023-04-16T16:52:32.214Z,13.00
2023-04-16T16:55:00.150Z,11.00
2023-04-16T16:57:28.036Z,12.50
2023-04-16T16:59:56.014Z,10.00
2023-04-16T17:02:24.124Z,9.50
2023-04-16T17:04:52.897Z,9.00
2023-04-16T17:07:20.948Z,9.00
2023-04-16T17:09:49.834Z,11.00
2023-04-16T17:12:17.817Z,10.00
2023-04-16T17:14:49.494Z,11.00
2023-04-16T17:17:17.482Z,14.67
2023-04-16T17:19:47.968Z,7.00
2023-04-16T17:22:16.055Z,6.50
2023-04-16T17:24:43.935Z,7.00
2023-04-16T17:27:11.874Z,10.00
2023-04-16T17:29:39.816Z,12.00
2023-04-16T17:32:07.828Z,8.00
2023-04-16T17:34:36.225Z,6.00
2023-04-16T17:37:04.067Z,5.50
2023-04-16T17:39:33.248Z,8.00
2023-04-16T17:42:03.071Z,9.33
2023-04-16T17:44:31.215Z,10.00
2023-04-16T17:46:59.268Z,10.00
2023-04-16T17:49:27.512Z,10.00
2023-04-16T17:51:55.465Z,11.00
2023-04-16T17:54:24.415Z,13.50
2023-04-16T17:56:52.430Z,12.00
2023-04-16T17:59:20.474Z,11.00
2023-04-16T18:01:49.839Z,9.00
2023-04-16T18:04:18.378Z,11.00
2023-04-16T18:06:47.350Z,8.00
2023-04-16T18:09:15.714Z,4.00
2023-04-16T18:11:43.791Z,3.00
2023-04-16T18:14:14.032Z,5.00
2023-04-16T18:16:42.152Z,11.33
2023-04-16T18:19:11.562Z,13.00
2023-04-16T18:21:39.688Z,12.50
2023-04-16T18:24:07.905Z,11.50
2023-04-16T18:26:37.813Z,7.00
2023-04-16T18:29:05.914Z,8.50
2023-04-16T18:31:33.985Z,5.00
2023-04-16T18:34:05.754Z,4.00
2023-04-16T18:36:34.031Z,4.00
2023-04-16T18:39:02.734Z,3.50
2023-04-16T18:41:31.386Z,5.00
2023-04-16T18:43:59.562Z,8.00
2023-04-16T18:46:27.778Z,11.00
2023-04-16T18:48:56.026Z,5.00
2023-04-16T18:51:25.192Z,4.00
2023-04-16T18:53:54.676Z,7.00
2023-04-16T18:56:22.721Z,5.00
2023-04-16T19:01:19.493Z,6.50
2023-04-16T19:03:48.600Z,6.50
2023-04-16T19:06:16.753Z,5.00
2023-04-16T19:08:44.894Z,7.00
2023-04-16T19:11:12.812Z,5.00
2023-04-16T19:13:40.831Z,10.00
2023-04-16T19:16:11.770Z,7.00
2023-04-16T19:18:40.184Z,8.00
2023-04-16T19:21:10.148Z,9.00
2023-04-16T19:23:38.354Z,9.00
2023-04-16T19:26:06.748Z,10.50
2023-04-16T19:28:35.030Z,11.00
2023-04-16T19:31:03.156Z,13.00
2023-04-16T19:33:31.480Z,10.00
2023-04-16T19:36:00.516Z,9.50
2023-04-16T19:38:29.217Z,7.00
2023-04-16T19:40:57.346Z,7.50
2023-04-16T19:43:28.389Z,10.00
2023-04-16T19:45:57.389Z,14.00
2023-04-16T19:48:26.286Z,11.00
2023-04-16T19:50:54.198Z,11.50
2023-04-16T19:53:22.243Z,10.00
2023-04-16T19:58:18.037Z,15.00
2023-04-16T20:00:47.378Z,10.33
2023-04-16T20:03:15.659Z,12.33
2023-04-16T20:05:48.354Z,14.00
2023-04-16T20:08:16.448Z,13.00
2023-04-16T20:13:13.741Z,14.00
2023-04-16T20:15:41.984Z,15.00
2023-04-16T20:18:12.821Z,14.00
2023-04-16T20:20:41.512Z,14.00
2023-04-16T20:23:09.456Z,15.67
2023-04-16T20:25:44.005Z,13.00
2023-04-16T20:28:12.513Z,15.67
2023-04-16T20:30:40.817Z,16.50
2023-04-16T20:33:08.821Z,21.00
2023-04-16T20:35:37.984Z,19.00
2023-04-16T20:38:06.037Z,22.00
2023-04-16T20:40:38.026Z,21.00
2023-04-16T20:43:10.263Z,20.67
2023-04-16T20:45:40.883Z,22.00
2023-04-16T20:48:11.867Z,21.00
2023-04-16T20:50:39.792Z,20.00
2023-04-16T20:53:07.824Z,20.50
2023-04-16T20:55:35.909Z,22.00
2023-04-16T20:58:03.738Z,22.00
2023-04-16T21:00:31.777Z,22.00
2023-04-16T21:02:59.821Z,22.00
2023-04-16T21:05:30.212Z,24.00
2023-04-16T21:10:27.430Z,21.00
2023-04-16T21:12:55.752Z,22.00
2023-04-16T21:15:23.676Z,19.00
2023-04-16T21:17:52.282Z,24.00
2023-04-16T21:20:20.122Z,24.00
2023-04-16T21:22:48.164Z,27.00
2023-04-16T21:25:16.302Z,27.00
2023-04-16T21:27:44.338Z,25.00
2023-04-16T21:30:13.375Z,20.50
2023-04-16T21:32:41.365Z,22.00
2023-04-16T21:35:09.659Z,24.67
2023-04-16T21:37:37.673Z,22.00
2023-04-16T21:40:06.592Z,22.00
2023-04-16T21:42:39.754Z,24.00
2023-04-16T21:45:10.579Z,23.00
2023-04-16T21:47:38.885Z,25.00
2023-04-16T21:50:07.826Z,22.00
2023-04-16T21:52:40.693Z,24.00
2023-04-16T21:55:09.704Z,23.00
2023-04-16T21:57:37.806Z,26.50
2023-04-16T22:00:14.430Z,24.00
2023-04-16T22:02:42.925Z,20.00
2023-04-16T22:05:11.748Z,22.00
2023-04-16T22:07:39.839Z,22.00
2023-04-16T22:10:09.021Z,22.00
2023-04-16T22:12:40.040Z,21.00
2023-04-16T22:15:09.180Z,22.00
2023-04-16T22:17:37.327Z,22.00
2023-04-16T22:20:07.338Z,24.00
2023-04-16T22:22:35.593Z,24.50
2023-04-16T22:25:03.658Z,22.00
2023-04-16T22:27:31.687Z,27.00
2023-04-16T22:30:00.694Z,24.50
2023-04-16T22:32:30.325Z,26.00
2023-04-16T22:34:58.653Z,23.00
2023-04-16T22:37:26.659Z,23.00
2023-04-16T22:39:54.594Z,25.00
2023-04-16T22:42:22.848Z,26.00
2023-04-16T22:44:51.342Z,23.00
2023-04-16T22:47:19.399Z,22.00
2023-04-16T22:49:47.950Z,20.00
2023-04-16T22:52:15.965Z,21.00
2023-04-16T22:54:43.916Z,22.00
2023-04-16T22:57:12.003Z,23.00
2023-04-16T22:59:39.892Z,22.50
2023-04-16T23:02:07.805Z,23.50
2023-04-16T23:04:36.137Z,21.50
2023-04-16T23:07:04.223Z,22.00
2023-04-16T23:09:33.536Z,19.00
2023-04-16T23:12:02.043Z,25.00
2023-04-16T23:14:31.781Z,24.00
2023-04-16T23:16:59.982Z,25.00
2023-04-16T23:19:27.981Z,25.00
2023-04-16T23:21:55.928Z,21.00
2023-04-16T23:24:25.500Z,21.00
2023-04-16T23:26:53.815Z,22.67
2023-04-16T23:29:22.389Z,23.67
2023-04-16T23:31:50.547Z,22.50
2023-04-16T23:34:18.828Z,19.00
2023-04-16T23:36:46.915Z,20.00
2023-04-16T23:39:14.981Z,24.00
2023-04-16T23:41:42.946Z,24.00
2023-04-16T23:44:10.957Z,23.00
2023-04-16T23:46:40.734Z,21.00
2023-04-16T23:49:08.713Z,26.00
2023-04-16T23:51:36.878Z,25.00
2023-04-16T23:54:04.798Z,26.00
2023-04-16T23:56:32.624Z,25.00
2023-04-16T23:59:00.530Z,22.00
